Time;durP1;ratioP1;P1;durP2;ratioP2;P2;SDS_P1;SDS_P2;PMS_P1;PMS_P2;Temp;Humidity;BMP_temperature;BMP_pressure;BME280_temperature;BME280_humidity;BME280_pressure;Samples;Min_cycle;Max_cycle;Signal;HPM_P1;HPM_P2
2021/10/19 00:00:50;;;;;;;23.27;14.47;;;;;;;;;;5118278;28;20292;-66
2021/10/19 00:03:19;;;;;;;24.17;14.67;;;;;;;;;;5118334;28;20205;-66
2021/10/19 00:05:47;;;;;;;22.97;14.50;;;;;;;;;;5118142;28;20683;-66
2021/10/19 00:08:15;;;;;;;26.33;14.67;;;;;;;;;;5118376;28;20629;-66
2021/10/19 00:10:43;;;;;;;22.90;14.20;;;;;;;;;;5104617;28;20643;-66
2021/10/19 00:13:11;;;;;;;22.00;14.10;;;;;;;;;;5118079;28;20247;-66
2021/10/19 00:15:41;;;;;;;22.80;14.30;;;;;;;;;;5118030;28;20235;-66
2021/10/19 00:18:09;;;;;;;23.77;13.73;;;;;;;;;;5118305;28;20241;-67
2021/10/19 00:20:37;;;;;;;24.23;14.80;;;;;;;;;;5118640;28;20215;-67
2021/10/19 00:23:04;;;;;;;19.13;14.40;;;;;;;;;;5118079;28;20284;-66
2021/10/19 00:25:32;;;;;;;22.43;14.80;;;;;;;;;;5117788;28;20224;-66
2021/10/19 00:28:00;;;;;;;26.27;15.43;;;;;;;;;;5118103;28;20292;-66
2021/10/19 00:30:29;;;;;;;26.33;14.37;;;;;;;;;;5118111;28;20288;-66
2021/10/19 00:32:58;;;;;;;22.87;13.90;;;;;;;;;;5118220;28;20224;-67
2021/10/19 00:35:27;;;;;;;22.43;13.90;;;;;;;;;;5118319;28;20221;-66
2021/10/19 00:37:55;;;;;;;25.53;15.10;;;;;;;;;;5118099;28;20291;-66
2021/10/19 00:40:23;;;;;;;23.83;14.97;;;;;;;;;;5117663;28;20244;-67
2021/10/19 00:42:51;;;;;;;26.40;15.70;;;;;;;;;;5118022;28;20207;-66
2021/10/19 00:45:19;;;;;;;23.63;14.87;;;;;;;;;;5118121;28;20231;-66
2021/10/19 00:47:49;;;;;;;20.70;14.27;;;;;;;;;;5121733;28;20220;-66
2021/10/19 00:50:19;;;;;;;25.47;14.37;;;;;;;;;;5121993;28;20672;-66
2021/10/19 00:52:48;;;;;;;24.87;14.40;;;;;;;;;;5122123;28;20285;-66
2021/10/19 00:55:16;;;;;;;22.93;14.80;;;;;;;;;;5121893;28;20235;-66
2021/10/19 00:57:45;;;;;;;23.57;14.33;;;;;;;;;;5122035;28;20215;-66
2021/10/19 01:00:14;;;;;;;20.23;14.30;;;;;;;;;;5121639;28;20579;-66
2021/10/19 01:02:43;;;;;;;22.83;14.80;;;;;;;;;;5121569;28;20207;-67
2021/10/19 01:05:12;;;;;;;18.77;13.53;;;;;;;;;;5121941;28;20270;-67
2021/10/19 01:07:43;;;;;;;21.27;13.30;;;;;;;;;;5121718;28;20736;-67
2021/10/19 01:10:11;;;;;;;29.90;15.47;;;;;;;;;;5121446;27;20205;-67
2021/10/19 01:12:41;;;;;;;22.20;13.23;;;;;;;;;;5121675;28;20205;-66
2021/10/19 01:15:10;;;;;;;23.07;14.53;;;;;;;;;;5121845;28;20224;-67
2021/10/19 01:17:42;;;;;;;18.90;14.27;;;;;;;;;;5121804;28;20209;-66
2021/10/19 01:20:19;;;;;;;24.97;13.67;;;;;;;;;;5121467;28;20314;-66
2021/10/19 01:22:47;;;;;;;19.50;13.37;;;;;;;;;;5121350;28;20643;-66
2021/10/19 01:25:17;;;;;;;22.10;13.67;;;;;;;;;;5120997;28;20725;-66
2021/10/19 01:27:46;;;;;;;21.50;13.47;;;;;;;;;;5121745;28;20201;-66
2021/10/19 01:30:14;;;;;;;21.23;13.20;;;;;;;;;;5121564;28;20200;-66
2021/10/19 01:32:42;;;;;;;21.77;13.13;;;;;;;;;;5121054;28;20574;-66
2021/10/19 01:35:10;;;;;;;21.63;13.13;;;;;;;;;;5121106;27;20220;-66
2021/10/19 01:37:43;;;;;;;22.40;13.43;;;;;;;;;;5121381;28;20212;-66
2021/10/19 01:40:12;;;;;;;22.40;13.47;;;;;;;;;;5119830;28;20243;-66
2021/10/19 01:42:40;;;;;;;18.80;12.23;;;;;;;;;;5120128;28;20215;-66
2021/10/19 01:45:13;;;;;;;19.60;12.77;;;;;;;;;;5120044;28;20221;-66
2021/10/19 01:47:40;;;;;;;17.87;13.10;;;;;;;;;;5119805;28;20289;-66
2021/10/19 01:50:09;;;;;;;21.83;14.40;;;;;;;;;;5119732;28;20204;-67
2021/10/19 01:52:38;;;;;;;20.13;13.53;;;;;;;;;;5119955;28;20219;-66
2021/10/19 01:55:08;;;;;;;19.97;13.33;;;;;;;;;;5119322;28;20224;-66
2021/10/19 01:57:36;;;;;;;19.90;13.07;;;;;;;;;;5119281;28;20205;-66
2021/10/19 02:00:04;;;;;;;19.50;12.70;;;;;;;;;;5119815;28;20211;-66
2021/10/19 02:02:32;;;;;;;19.20;12.63;;;;;;;;;;5119444;28;20207;-66
2021/10/19 02:05:00;;;;;;;19.90;13.23;;;;;;;;;;5119795;28;20308;-66
2021/10/19 02:07:28;;;;;;;18.50;12.37;;;;;;;;;;5119721;28;20283;-66
2021/10/19 02:09:56;;;;;;;16.20;12.37;;;;;;;;;;5119361;28;20205;-66
2021/10/19 02:12:26;;;;;;;20.10;11.73;;;;;;;;;;5119296;28;20205;-66
2021/10/19 02:14:54;;;;;;;16.47;11.63;;;;;;;;;;5119297;28;20235;-66
2021/10/19 02:17:22;;;;;;;15.80;11.80;;;;;;;;;;5119334;28;20215;-67
2021/10/19 02:19:50;;;;;;;17.03;12.20;;;;;;;;;;5119518;28;20205;-66
2021/10/19 02:22:18;;;;;;;20.47;11.93;;;;;;;;;;5119329;28;20268;-66
2021/10/19 02:24:46;;;;;;;21.03;12.37;;;;;;;;;;5118642;28;20641;-66
2021/10/19 02:27:14;;;;;;;18.73;12.43;;;;;;;;;;5118902;28;20215;-66
2021/10/19 02:29:43;;;;;;;20.47;12.13;;;;;;;;;;5119193;28;20223;-67
2021/10/19 02:32:11;;;;;;;16.87;11.83;;;;;;;;;;5118890;28;20227;-67
2021/10/19 02:34:39;;;;;;;20.30;12.87;;;;;;;;;;5119025;28;20232;-66
2021/10/19 02:37:07;;;;;;;17.83;12.37;;;;;;;;;;5119045;28;20205;-66
2021/10/19 02:39:35;;;;;;;18.87;13.43;;;;;;;;;;5073733;28;1288375;-66
2021/10/19 02:42:03;;;;;;;20.13;12.33;;;;;;;;;;5120181;28;20204;-67
2021/10/19 02:44:31;;;;;;;19.43;11.87;;;;;;;;;;5120049;28;20225;-68
2021/10/19 02:47:00;;;;;;;16.50;11.23;;;;;;;;;;5119846;28;20223;-67
2021/10/19 02:49:28;;;;;;;19.33;12.27;;;;;;;;;;5119736;28;20205;-67
2021/10/19 02:51:56;;;;;;;18.07;11.93;;;;;;;;;;5120024;28;20204;-66
2021/10/19 02:54:24;;;;;;;17.30;12.67;;;;;;;;;;5119458;28;20237;-66
2021/10/19 02:56:52;;;;;;;18.63;12.13;;;;;;;;;;5119745;28;20205;-66
2021/10/19 02:59:20;;;;;;;17.17;11.60;;;;;;;;;;5119757;28;20204;-66
2021/10/19 03:01:48;;;;;;;16.47;11.77;;;;;;;;;;5119326;28;20235;-67
2021/10/19 03:04:18;;;;;;;17.77;11.90;;;;;;;;;;5119681;28;20225;-66
2021/10/19 03:06:46;;;;;;;17.70;12.03;;;;;;;;;;5119644;28;20204;-66
2021/10/19 03:09:13;;;;;;;18.63;12.03;;;;;;;;;;5118678;28;20204;-66
2021/10/19 03:11:43;;;;;;;19.60;12.50;;;;;;;;;;5119264;28;20205;-66
2021/10/19 03:14:11;;;;;;;18.53;10.90;;;;;;;;;;5119334;28;20231;-67
2021/10/19 03:16:39;;;;;;;15.53;11.63;;;;;;;;;;5119288;27;20289;-67
2021/10/19 03:19:07;;;;;;;17.97;11.20;;;;;;;;;;5119170;28;21082;-67
2021/10/19 03:21:37;;;;;;;14.33;11.20;;;;;;;;;;5119122;28;20550;-66
2021/10/19 03:24:05;;;;;;;18.10;11.67;;;;;;;;;;5118789;28;20308;-67
2021/10/19 03:26:33;;;;;;;16.50;11.50;;;;;;;;;;5118683;28;20587;-66
2021/10/19 03:29:01;;;;;;;15.40;10.63;;;;;;;;;;5119489;28;20207;-67
2021/10/19 03:31:34;;;;;;;15.27;10.90;;;;;;;;;;5118690;28;20297;-66
2021/10/19 03:34:03;;;;;;;16.50;11.23;;;;;;;;;;5118874;28;20675;-67
2021/10/19 03:36:31;;;;;;;16.43;10.93;;;;;;;;;;5118850;28;20296;-67
2021/10/19 03:39:00;;;;;;;16.23;13.77;;;;;;;;;;5118751;28;20598;-67
2021/10/19 03:41:28;;;;;;;18.60;11.50;;;;;;;;;;5118207;28;20205;-67
2021/10/19 03:43:56;;;;;;;19.20;11.53;;;;;;;;;;5119025;28;20288;-66
2021/10/19 03:46:24;;;;;;;16.60;11.13;;;;;;;;;;5118924;28;20208;-66
2021/10/19 03:48:52;;;;;;;14.30;11.50;;;;;;;;;;5118639;28;20664;-66
2021/10/19 03:51:20;;;;;;;15.83;11.47;;;;;;;;;;5105674;28;20209;-67
2021/10/19 03:53:49;;;;;;;17.33;10.33;;;;;;;;;;5118499;28;20239;-66
2021/10/19 03:56:18;;;;;;;17.17;10.83;;;;;;;;;;5118495;28;20208;-66
2021/10/19 03:58:46;;;;;;;16.10;10.77;;;;;;;;;;5118471;28;20644;-66
2021/10/19 04:01:14;;;;;;;17.10;11.03;;;;;;;;;;5118467;28;20292;-67
2021/10/19 04:03:42;;;;;;;16.10;11.20;;;;;;;;;;5118229;28;20722;-66
2021/10/19 04:06:12;;;;;;;15.23;10.10;;;;;;;;;;5118285;28;20285;-66
2021/10/19 04:08:40;;;;;;;16.13;10.93;;;;;;;;;;5118198;28;20193;-66
2021/10/19 04:11:08;;;;;;;16.93;11.53;;;;;;;;;;5117824;28;20208;-66
2021/10/19 04:13:37;;;;;;;18.20;12.03;;;;;;;;;;5118153;28;20231;-66
2021/10/19 04:16:06;;;;;;;17.20;11.60;;;;;;;;;;5117940;28;20230;-66
2021/10/19 04:18:34;;;;;;;17.30;11.27;;;;;;;;;;5118366;28;20218;-67
2021/10/19 04:21:02;;;;;;;21.00;11.80;;;;;;;;;;5118008;28;20226;-66
2021/10/19 04:23:30;;;;;;;20.10;11.77;;;;;;;;;;5118192;28;20283;-66
2021/10/19 04:25:58;;;;;;;18.73;10.93;;;;;;;;;;5117825;28;20200;-66
2021/10/19 04:28:26;;;;;;;17.33;11.03;;;;;;;;;;5118133;28;20594;-66
2021/10/19 04:30:55;;;;;;;16.77;10.67;;;;;;;;;;5118385;28;20275;-66
2021/10/19 04:33:23;;;;;;;14.67;10.23;;;;;;;;;;5118361;28;20221;-69
2021/10/19 04:35:51;;;;;;;17.43;10.60;;;;;;;;;;5123259;28;20216;-67
2021/10/19 04:38:20;;;;;;;14.37;10.03;;;;;;;;;;5127718;28;20207;-67
2021/10/19 04:40:48;;;;;;;17.93;10.33;;;;;;;;;;5084818;28;20194;-67
2021/10/19 04:43:16;;;;;;;16.27;10.27;;;;;;;;;;5083833;28;20252;-66
2021/10/19 04:45:44;;;;;;;16.57;10.33;;;;;;;;;;5084525;28;20586;-67
2021/10/19 04:48:15;;;;;;;22.60;11.00;;;;;;;;;;5088074;28;20197;-66
2021/10/19 04:50:43;;;;;;;15.37;9.73;;;;;;;;;;5086922;28;20194;-66
2021/10/19 04:53:12;;;;;;;15.90;10.43;;;;;;;;;;5085132;28;20208;-66
2021/10/19 04:55:40;;;;;;;15.87;10.10;;;;;;;;;;5080726;28;20236;-67
2021/10/19 04:58:08;;;;;;;13.20;9.80;;;;;;;;;;5087090;28;20201;-67
2021/10/19 05:00:36;;;;;;;16.73;11.03;;;;;;;;;;5082444;28;20294;-67
2021/10/19 05:03:04;;;;;;;14.67;10.63;;;;;;;;;;5072791;28;20265;-67
2021/10/19 05:05:33;;;;;;;16.03;10.93;;;;;;;;;;5083929;28;20222;-66
2021/10/19 05:08:01;;;;;;;12.73;10.53;;;;;;;;;;5083177;28;20203;-66
2021/10/19 05:10:29;;;;;;;14.57;10.47;;;;;;;;;;5083379;28;20209;-65
2021/10/19 05:12:57;;;;;;;16.23;10.83;;;;;;;;;;5083886;28;20198;-66
2021/10/19 05:15:26;;;;;;;14.57;10.13;;;;;;;;;;5083102;28;20222;-66
2021/10/19 05:17:54;;;;;;;14.90;10.37;;;;;;;;;;5076865;28;20289;-64
2021/10/19 05:20:23;;;;;;;16.43;10.67;;;;;;;;;;5076879;28;20212;-65
2021/10/19 05:22:52;;;;;;;17.03;10.30;;;;;;;;;;5077204;28;20210;-64
2021/10/19 05:25:20;;;;;;;16.73;10.93;;;;;;;;;;5076571;28;20229;-66
2021/10/19 05:27:48;;;;;;;15.47;9.77;;;;;;;;;;5079550;28;20201;-68
2021/10/19 05:30:17;;;;;;;18.70;11.20;;;;;;;;;;5086016;28;20799;-68
2021/10/19 05:32:45;;;;;;;14.73;11.17;;;;;;;;;;5086907;28;20202;-66
2021/10/19 05:35:13;;;;;;;18.57;9.90;;;;;;;;;;5088697;28;20703;-65
2021/10/19 05:37:41;;;;;;;15.90;9.80;;;;;;;;;;5086785;28;20198;-66
2021/10/19 05:40:12;;;;;;;16.93;10.40;;;;;;;;;;5117077;27;20309;-66
2021/10/19 05:42:45;;;;;;;12.40;9.50;;;;;;;;;;5120884;28;20287;-66
2021/10/19 05:45:13;;;;;;;15.80;10.20;;;;;;;;;;5120939;28;20225;-66
2021/10/19 05:47:42;;;;;;;19.23;10.27;;;;;;;;;;5121075;28;20327;-66
2021/10/19 05:50:11;;;;;;;14.73;10.00;;;;;;;;;;5121368;28;20257;-66
2021/10/19 05:52:38;;;;;;;16.73;9.87;;;;;;;;;;5121127;28;20201;-66
2021/10/19 05:55:07;;;;;;;15.33;9.57;;;;;;;;;;5120559;28;20239;-66
2021/10/19 05:57:36;;;;;;;16.03;9.47;;;;;;;;;;5120825;28;20232;-66
2021/10/19 06:00:05;;;;;;;16.17;9.60;;;;;;;;;;5121141;28;20209;-66
2021/10/19 06:02:33;;;;;;;14.67;9.13;;;;;;;;;;5120612;28;20238;-66
2021/10/19 06:05:01;;;;;;;15.80;9.17;;;;;;;;;;5120910;28;20718;-66
2021/10/19 06:07:29;;;;;;;16.10;9.90;;;;;;;;;;5120812;28;20224;-66
2021/10/19 06:09:57;;;;;;;14.77;9.60;;;;;;;;;;5117179;27;20197;-66
2021/10/19 06:12:27;;;;;;;13.60;8.83;;;;;;;;;;5120430;28;20793;-67
2021/10/19 06:14:56;;;;;;;10.67;9.17;;;;;;;;;;5121247;28;20881;-68
2021/10/19 06:17:24;;;;;;;14.67;9.47;;;;;;;;;;5120654;28;20223;-67
2021/10/19 06:19:52;;;;;;;18.23;10.03;;;;;;;;;;5128025;27;20197;-72
2021/10/19 06:22:21;;;;;;;14.90;9.13;;;;;;;;;;5122459;27;20197;-73
2021/10/19 06:24:49;;;;;;;12.77;8.83;;;;;;;;;;5121290;27;20216;-73
2021/10/19 06:27:17;;;;;;;16.23;9.60;;;;;;;;;;5127985;27;20624;-66
2021/10/19 06:29:45;;;;;;;12.20;8.87;;;;;;;;;;5127801;27;20559;-67
2021/10/19 06:32:15;;;;;;;13.50;8.97;;;;;;;;;;5121998;27;20283;-67
2021/10/19 06:34:43;;;;;;;12.20;9.10;;;;;;;;;;5119723;28;20327;-67
2021/10/19 06:37:11;;;;;;;15.00;8.90;;;;;;;;;;5119647;28;20587;-66
2021/10/19 06:39:39;;;;;;;14.27;9.47;;;;;;;;;;5119319;28;20726;-66
2021/10/19 06:42:07;;;;;;;15.03;9.33;;;;;;;;;;5119819;28;20210;-66
2021/10/19 06:44:35;;;;;;;14.00;10.30;;;;;;;;;;5118765;28;20221;-66
2021/10/19 06:47:15;;;;;;;16.43;9.83;;;;;;;;;;5119412;28;20201;-67
2021/10/19 06:49:44;;;;;;;14.60;9.50;;;;;;;;;;5119750;28;20674;-66
2021/10/19 06:52:12;;;;;;;16.83;9.70;;;;;;;;;;5119208;28;20292;-67
2021/10/19 06:54:40;;;;;;;12.37;9.40;;;;;;;;;;5119175;28;20700;-67
2021/10/19 06:57:08;;;;;;;12.63;9.17;;;;;;;;;;5119226;28;20823;-68
2021/10/19 06:59:36;;;;;;;213.73;109.83;;;;;;;;;;5119133;28;20231;-66
2021/10/19 07:02:04;;;;;;;21.40;13.73;;;;;;;;;;5119141;28;20315;-66
2021/10/19 07:04:35;;;;;;;18.60;10.27;;;;;;;;;;5119210;28;20236;-67
2021/10/19 07:07:03;;;;;;;15.73;9.50;;;;;;;;;;5119340;28;20205;-67
2021/10/19 07:09:31;;;;;;;16.50;10.40;;;;;;;;;;5118755;28;20288;-66
2021/10/19 07:12:01;;;;;;;20.17;9.67;;;;;;;;;;5119180;28;20204;-66
2021/10/19 07:14:29;;;;;;;16.37;9.87;;;;;;;;;;5124615;27;20711;-68
2021/10/19 07:16:58;;;;;;;14.73;9.00;;;;;;;;;;5115973;27;20221;-68
2021/10/19 07:19:26;;;;;;;15.73;9.90;;;;;;;;;;5102239;28;20223;-68
2021/10/19 07:21:55;;;;;;;16.17;10.27;;;;;;;;;;5102701;28;20206;-67
2021/10/19 07:24:23;;;;;;;16.10;9.97;;;;;;;;;;5102116;27;20325;-66
2021/10/19 07:26:51;;;;;;;15.83;9.83;;;;;;;;;;5100849;28;20632;-66
2021/10/19 07:29:19;;;;;;;15.27;10.40;;;;;;;;;;5098460;28;20224;-66
2021/10/19 07:31:47;;;;;;;14.37;10.87;;;;;;;;;;5106490;28;20612;-66
2021/10/19 07:34:15;;;;;;;13.50;10.40;;;;;;;;;;5118658;28;20220;-66
2021/10/19 07:36:43;;;;;;;15.33;10.23;;;;;;;;;;5118576;28;20280;-65
2021/10/19 07:39:12;;;;;;;16.57;9.83;;;;;;;;;;5118312;28;20264;-65
2021/10/19 07:41:40;;;;;;;20.77;11.40;;;;;;;;;;5118156;28;20199;-64
2021/10/19 07:44:08;;;;;;;14.77;10.80;;;;;;;;;;5118313;28;20229;-63
2021/10/19 07:46:36;;;;;;;13.80;9.97;;;;;;;;;;5121143;27;20208;-64
2021/10/19 07:49:04;;;;;;;15.10;10.90;;;;;;;;;;5127157;27;20232;-64
2021/10/19 07:51:32;;;;;;;20.40;11.33;;;;;;;;;;5126875;27;20197;-66
2021/10/19 07:54:00;;;;;;;16.03;10.93;;;;;;;;;;5124782;27;21011;-63
2021/10/19 07:56:30;;;;;;;14.40;10.57;;;;;;;;;;5126459;27;20277;-64
2021/10/19 07:58:58;;;;;;;12.57;10.23;;;;;;;;;;5126304;27;20220;-64
2021/10/19 08:01:26;;;;;;;13.57;10.53;;;;;;;;;;5128375;27;20200;-63
2021/10/19 08:03:54;;;;;;;15.80;11.10;;;;;;;;;;5124432;27;20223;-64
2021/10/19 08:06:22;;;;;;;16.97;11.23;;;;;;;;;;5125559;27;20236;-64
2021/10/19 08:08:50;;;;;;;14.90;11.23;;;;;;;;;;5129030;27;20295;-64
2021/10/19 08:11:18;;;;;;;18.43;11.23;;;;;;;;;;5127281;27;20207;-64
2021/10/19 08:13:48;;;;;;;19.00;11.20;;;;;;;;;;5125733;27;20261;-66
2021/10/19 08:16:16;;;;;;;15.00;10.37;;;;;;;;;;5123446;27;20201;-65
2021/10/19 08:18:44;;;;;;;13.93;10.80;;;;;;;;;;5119086;27;20612;-65
2021/10/19 08:21:12;;;;;;;17.40;11.10;;;;;;;;;;5118213;28;20205;-66
2021/10/19 08:23:40;;;;;;;13.77;10.93;;;;;;;;;;5118246;28;20299;-65
2021/10/19 08:26:08;;;;;;;16.43;10.57;;;;;;;;;;5117508;28;20566;-64
2021/10/19 08:28:39;;;;;;;19.80;11.00;;;;;;;;;;5121462;27;20211;-64
2021/10/19 08:31:10;;;;;;;15.43;11.03;;;;;;;;;;5124784;27;20284;-64
2021/10/19 08:33:38;;;;;;;13.47;10.00;;;;;;;;;;5127564;28;20197;-65
2021/10/19 08:36:07;;;;;;;12.80;9.77;;;;;;;;;;5122683;28;20566;-66
2021/10/19 08:38:35;;;;;;;15.07;9.77;;;;;;;;;;5117798;28;20231;-64
2021/10/19 08:41:03;;;;;;;13.80;10.87;;;;;;;;;;5117571;28;20701;-68
2021/10/19 08:43:31;;;;;;;16.80;11.50;;;;;;;;;;5118030;28;20232;-66
2021/10/19 08:45:59;;;;;;;12.37;10.40;;;;;;;;;;5117848;28;20213;-66
2021/10/19 08:48:29;;;;;;;14.30;10.40;;;;;;;;;;5118166;28;20205;-69
2021/10/19 08:50:58;;;;;;;15.03;10.87;;;;;;;;;;5116576;28;20288;-69
2021/10/19 08:53:26;;;;;;;15.33;10.23;;;;;;;;;;5116380;28;20201;-69
2021/10/19 08:55:55;;;;;;;15.87;11.30;;;;;;;;;;5115485;28;20204;-69
2021/10/19 08:58:23;;;;;;;15.60;10.53;;;;;;;;;;5114308;28;20556;-68
2021/10/19 09:01:01;;;;;;;18.20;9.93;;;;;;;;;;5116288;28;20197;-68
2021/10/19 09:03:31;;;;;;;14.53;10.27;;;;;;;;;;5115340;28;20250;-69
2021/10/19 09:05:59;;;;;;;16.47;10.70;;;;;;;;;;5116986;28;20209;-66
2021/10/19 09:08:27;;;;;;;17.20;10.63;;;;;;;;;;5120105;28;20193;-66
2021/10/19 09:10:55;;;;;;;13.73;10.73;;;;;;;;;;5121015;28;20236;-66
2021/10/19 09:13:23;;;;;;;17.10;11.13;;;;;;;;;;5121389;28;20574;-66
2021/10/19 09:15:52;;;;;;;20.30;11.33;;;;;;;;;;5121173;28;20229;-66
2021/10/19 09:18:21;;;;;;;13.07;10.13;;;;;;;;;;5120779;28;20766;-66
2021/10/19 09:20:51;;;;;;;15.83;11.20;;;;;;;;;;5121596;28;20201;-68
2021/10/19 09:23:21;;;;;;;14.40;10.93;;;;;;;;;;5121555;28;20201;-67
2021/10/19 09:25:51;;;;;;;16.17;11.43;;;;;;;;;;5120914;28;20220;-68
2021/10/19 09:28:32;;;;;;;14.93;10.70;;;;;;;;;;5121046;28;20215;-68
2021/10/19 09:31:01;;;;;;;14.07;10.37;;;;;;;;;;5121142;28;20260;-66
2021/10/19 09:33:29;;;;;;;14.33;10.10;;;;;;;;;;5120840;28;20765;-66
2021/10/19 09:35:59;;;;;;;11.27;9.33;;;;;;;;;;5121195;28;20205;-66
2021/10/19 09:38:28;;;;;;;13.30;9.37;;;;;;;;;;5120817;28;20225;-66
2021/10/19 09:40:57;;;;;;;14.63;9.37;;;;;;;;;;5120988;28;20295;-66
2021/10/19 09:43:26;;;;;;;13.67;9.27;;;;;;;;;;5120621;28;20212;-68
2021/10/19 09:46:01;;;;;;;11.50;9.27;;;;;;;;;;5120716;28;20204;-68
2021/10/19 09:48:31;;;;;;;15.13;10.07;;;;;;;;;;5120992;28;20219;-67
2021/10/19 09:51:01;;;;;;;14.40;10.30;;;;;;;;;;5120591;28;20238;-66
2021/10/19 09:53:30;;;;;;;16.47;10.73;;;;;;;;;;5120997;28;20219;-66
2021/10/19 09:55:58;;;;;;;12.90;10.40;;;;;;;;;;5119942;28;20220;-69
2021/10/19 09:58:27;;;;;;;12.50;10.27;;;;;;;;;;5120770;28;20225;-66
2021/10/19 10:00:55;;;;;;;15.30;10.43;;;;;;;;;;5120228;28;20223;-66
2021/10/19 10:03:23;;;;;;;13.93;10.40;;;;;;;;;;5120588;28;20205;-64
2021/10/19 10:05:52;;;;;;;16.47;10.50;;;;;;;;;;5120380;27;20251;-65
2021/10/19 10:08:23;;;;;;;15.50;10.37;;;;;;;;;;5120304;28;20262;-64
2021/10/19 10:10:52;;;;;;;16.90;9.53;;;;;;;;;;5120437;28;20694;-64
2021/10/19 10:13:20;;;;;;;13.00;9.77;;;;;;;;;;5120054;28;20291;-63
2021/10/19 10:15:49;;;;;;;15.53;10.00;;;;;;;;;;5119740;28;20696;-64
2021/10/19 10:18:17;;;;;;;12.47;8.87;;;;;;;;;;5119660;28;20224;-64
2021/10/19 10:20:47;;;;;;;12.50;8.57;;;;;;;;;;5120399;28;20215;-64
2021/10/19 10:23:16;;;;;;;12.33;9.43;;;;;;;;;;5119905;28;20292;-62
2021/10/19 10:25:46;;;;;;;12.97;9.90;;;;;;;;;;5119589;28;20217;-62
2021/10/19 10:28:16;;;;;;;15.00;9.97;;;;;;;;;;5120408;28;20211;-63
2021/10/19 10:30:47;;;;;;;11.53;8.63;;;;;;;;;;5120037;28;20313;-63
2021/10/19 10:33:15;;;;;;;13.40;9.27;;;;;;;;;;5119817;28;20663;-67
2021/10/19 10:35:45;;;;;;;13.17;8.80;;;;;;;;;;5119776;28;20803;-65
2021/10/19 10:38:13;;;;;;;12.67;8.93;;;;;;;;;;5119626;28;20220;-65
2021/10/19 10:40:42;;;;;;;12.17;9.17;;;;;;;;;;5122740;27;20235;-66
2021/10/19 10:43:31;;;;;;;11.23;8.67;;;;;;;;;;5127897;27;20232;-65
2021/10/19 10:46:03;;;;;;;11.73;8.70;;;;;;;;;;5125014;27;20231;-65
2021/10/19 10:48:32;;;;;;;12.60;8.43;;;;;;;;;;5124500;27;20197;-64
2021/10/19 10:51:00;;;;;;;13.03;9.47;;;;;;;;;;5117690;28;20205;-64
2021/10/19 10:53:32;;;;;;;13.03;8.03;;;;;;;;;;5118190;28;20254;-66
2021/10/19 10:56:00;;;;;;;10.30;8.07;;;;;;;;;;5117586;28;20201;-67
2021/10/19 10:58:34;;;;;;;14.13;7.97;;;;;;;;;;5118157;28;20308;-64
2021/10/19 11:01:12;;;;;;;8.80;7.30;;;;;;;;;;5118191;28;20204;-64
2021/10/19 11:03:41;;;;;;;12.07;7.83;;;;;;;;;;5117962;28;20201;-65
2021/10/19 11:06:12;;;;;;;10.07;7.63;;;;;;;;;;5118084;28;20211;-64
2021/10/19 11:08:40;;;;;;;11.17;7.27;;;;;;;;;;5118156;28;20208;-65
2021/10/19 11:11:09;;;;;;;10.33;7.67;;;;;;;;;;5117967;28;20651;-65
2021/10/19 11:13:54;;;;;;;9.67;7.07;;;;;;;;;;5117870;28;20192;-66
2021/10/19 11:16:29;;;;;;;8.43;7.40;;;;;;;;;;5117524;28;20197;-66
2021/10/19 11:18:57;;;;;;;8.33;7.03;;;;;;;;;;5117846;28;20588;-65
2021/10/19 11:21:25;;;;;;;10.33;6.73;;;;;;;;;;5115424;28;20283;-66
2021/10/19 11:23:55;;;;;;;7.73;6.40;;;;;;;;;;5118199;28;20592;-65
2021/10/19 11:26:23;;;;;;;8.40;6.70;;;;;;;;;;5117021;28;20204;-66
2021/10/19 11:28:54;;;;;;;7.93;6.70;;;;;;;;;;5118752;28;20208;-65
2021/10/19 11:31:23;;;;;;;12.70;7.30;;;;;;;;;;5118367;28;20288;-65
2021/10/19 11:33:51;;;;;;;12.50;6.57;;;;;;;;;;5118594;28;20307;-65
2021/10/19 11:36:19;;;;;;;7.63;5.73;;;;;;;;;;5119315;28;20319;-64
2021/10/19 11:38:49;;;;;;;6.77;5.53;;;;;;;;;;5118615;28;20236;-65
2021/10/19 11:41:19;;;;;;;7.07;5.43;;;;;;;;;;5118555;28;20212;-65
2021/10/19 11:43:49;;;;;;;7.37;5.07;;;;;;;;;;5118313;28;20205;-65
2021/10/19 11:46:20;;;;;;;6.40;4.60;;;;;;;;;;5118242;28;20204;-65
2021/10/19 11:48:49;;;;;;;7.83;4.63;;;;;;;;;;5118758;28;20201;-65
2021/10/19 11:51:18;;;;;;;6.20;4.07;;;;;;;;;;5118714;28;20288;-65
2021/10/19 11:53:47;;;;;;;7.37;4.07;;;;;;;;;;5118491;28;20208;-65
2021/10/19 11:56:16;;;;;;;4.87;3.93;;;;;;;;;;5117907;28;20306;-65
2021/10/19 11:58:48;;;;;;;6.00;3.93;;;;;;;;;;5118379;28;20227;-65
2021/10/19 12:01:20;;;;;;;3.30;2.97;;;;;;;;;;5118199;28;20215;-65
2021/10/19 12:03:56;;;;;;;7.97;3.10;;;;;;;;;;5118391;27;20274;-65
2021/10/19 12:06:24;;;;;;;3.30;3.00;;;;;;;;;;5118141;28;20230;-65
2021/10/19 12:08:52;;;;;;;5.10;3.40;;;;;;;;;;5118094;28;20197;-65
2021/10/19 12:11:23;;;;;;;7.30;3.77;;;;;;;;;;5118159;28;20723;-65
2021/10/19 12:13:54;;;;;;;6.90;2.93;;;;;;;;;;5117835;28;20305;-65
2021/10/19 12:16:27;;;;;;;5.17;3.40;;;;;;;;;;5117735;28;20208;-65
2021/10/19 12:18:55;;;;;;;2.87;2.67;;;;;;;;;;5117852;28;20756;-65
2021/10/19 12:21:24;;;;;;;3.10;2.80;;;;;;;;;;5118050;28;20204;-65
2021/10/19 12:23:53;;;;;;;4.60;2.90;;;;;;;;;;5117670;28;20763;-65
2021/10/19 12:26:22;;;;;;;3.83;2.60;;;;;;;;;;5109546;28;20200;-66
2021/10/19 12:28:51;;;;;;;3.80;2.63;;;;;;;;;;5118108;28;20203;-66
2021/10/19 12:31:19;;;;;;;5.43;2.67;;;;;;;;;;5118100;28;20211;-66
2021/10/19 12:33:55;;;;;;;2.83;2.53;;;;;;;;;;5117719;28;20205;-65
2021/10/19 12:36:27;;;;;;;3.70;2.30;;;;;;;;;;5117934;28;20210;-66
2021/10/19 12:38:56;;;;;;;3.87;2.57;;;;;;;;;;5117364;28;20244;-68
2021/10/19 12:41:24;;;;;;;3.00;2.70;;;;;;;;;;5119058;28;20209;-69
2021/10/19 12:43:53;;;;;;;6.40;2.63;;;;;;;;;;5122006;28;20220;-65
2021/10/19 12:46:22;;;;;;;4.27;2.53;;;;;;;;;;5121963;28;20275;-66
2021/10/19 12:48:51;;;;;;;4.77;2.10;;;;;;;;;;5121758;28;20622;-66
2021/10/19 12:51:21;;;;;;;5.47;2.63;;;;;;;;;;5121810;28;20640;-65
2021/10/19 12:53:51;;;;;;;3.67;2.17;;;;;;;;;;5121957;28;20220;-66
2021/10/19 12:56:20;;;;;;;2.70;2.23;;;;;;;;;;5122010;28;20264;-65
2021/10/19 12:58:47;;;;;;;2.90;2.50;;;;;;;;;;5122013;28;20204;-65
2021/10/19 13:01:16;;;;;;;2.60;2.00;;;;;;;;;;5121797;27;20200;-65
2021/10/19 13:03:44;;;;;;;2.30;2.10;;;;;;;;;;5121652;28;20216;-65
2021/10/19 13:06:14;;;;;;;4.10;2.30;;;;;;;;;;5121628;27;20304;-66
2021/10/19 13:08:43;;;;;;;2.87;1.80;;;;;;;;;;5121652;28;20204;-65
2021/10/19 13:11:11;;;;;;;2.07;1.87;;;;;;;;;;5121394;28;20215;-66
2021/10/19 13:13:39;;;;;;;3.23;2.07;;;;;;;;;;5121655;28;20215;-65
2021/10/19 13:16:08;;;;;;;2.13;1.93;;;;;;;;;;5121550;28;20283;-66
2021/10/19 13:18:38;;;;;;;3.73;1.90;;;;;;;;;;5121653;28;20213;-66
2021/10/19 13:21:07;;;;;;;3.67;2.00;;;;;;;;;;5120713;27;20217;-66
2021/10/19 13:23:35;;;;;;;2.27;2.07;;;;;;;;;;5120900;28;20215;-66
2021/10/19 13:26:04;;;;;;;2.10;1.87;;;;;;;;;;5120488;28;20547;-66
2021/10/19 13:28:33;;;;;;;1.97;1.77;;;;;;;;;;5121062;28;20284;-65
2021/10/19 13:31:01;;;;;;;1.70;1.60;;;;;;;;;;5120934;28;20288;-65
2021/10/19 13:33:29;;;;;;;2.17;1.93;;;;;;;;;;5121359;28;20211;-66
2021/10/19 13:36:00;;;;;;;2.97;1.73;;;;;;;;;;5121229;28;20197;-65
2021/10/19 13:38:31;;;;;;;4.37;2.10;;;;;;;;;;5120787;28;20201;-66
2021/10/19 13:40:59;;;;;;;1.90;1.70;;;;;;;;;;5120704;28;20232;-65
2021/10/19 13:43:29;;;;;;;4.67;1.83;;;;;;;;;;5120908;28;20205;-66
2021/10/19 13:45:57;;;;;;;2.37;2.03;;;;;;;;;;5120688;28;20205;-65
2021/10/19 13:48:25;;;;;;;3.23;2.20;;;;;;;;;;5121021;28;20240;-66
2021/10/19 13:50:54;;;;;;;2.20;1.73;;;;;;;;;;5121136;28;20209;-65
2021/10/19 13:53:22;;;;;;;5.03;1.57;;;;;;;;;;5120140;28;20575;-65
2021/10/19 13:55:51;;;;;;;3.33;1.60;;;;;;;;;;5120389;28;20229;-65
2021/10/19 13:58:19;;;;;;;3.33;1.73;;;;;;;;;;5121070;27;20201;-66
2021/10/19 14:00:48;;;;;;;6.07;2.53;;;;;;;;;;5121003;28;20581;-65
2021/10/19 14:03:16;;;;;;;2.30;1.83;;;;;;;;;;5120544;28;20215;-66
2021/10/19 14:05:45;;;;;;;2.73;1.83;;;;;;;;;;5120616;28;20232;-66
2021/10/19 14:08:13;;;;;;;1.77;1.67;;;;;;;;;;5120362;28;20212;-66
2021/10/19 14:10:42;;;;;;;4.83;2.03;;;;;;;;;;5120071;28;20623;-66
2021/10/19 14:13:10;;;;;;;2.40;2.17;;;;;;;;;;5120465;28;20672;-66
2021/10/19 14:15:38;;;;;;;4.40;2.13;;;;;;;;;;5120300;28;20224;-65
2021/10/19 14:18:07;;;;;;;3.53;1.70;;;;;;;;;;5120142;28;20305;-66
2021/10/19 14:20:35;;;;;;;3.07;1.77;;;;;;;;;;5120015;28;20224;-66
2021/10/19 14:23:08;;;;;;;4.20;2.50;;;;;;;;;;5120439;28;20204;-66
2021/10/19 14:25:36;;;;;;;39.57;9.17;;;;;;;;;;5119821;28;20252;-65
2021/10/19 14:28:04;;;;;;;11.53;4.60;;;;;;;;;;5120041;28;20668;-65
2021/10/19 14:30:35;;;;;;;4.07;2.50;;;;;;;;;;5119878;28;20672;-65
2021/10/19 14:33:03;;;;;;;2.63;2.30;;;;;;;;;;5119976;28;20212;-65
2021/10/19 14:35:33;;;;;;;2.80;2.10;;;;;;;;;;5120282;28;20230;-65